sensor_id;sensor_type;location;lat;lon;timestamp;temperature;humidity
70947;DHT22;58605;48.700;8.760;2023-05-02T00:00:44;7.80;99.90
70947;DHT22;58605;48.700;8.760;2023-05-02T00:03:12;7.70;99.90
70947;DHT22;58605;48.700;8.760;2023-05-02T00:05:38;7.70;99.90
70947;DHT22;58605;48.700;8.760;2023-05-02T00:08:05;7.70;99.90
70947;DHT22;58605;48.700;8.760;2023-05-02T00:10:31;7.70;99.90
70947;DHT22;58605;48.700;8.760;2023-05-02T00:12:58;7.70;99.90
70947;DHT22;58605;48.700;8.760;2023-05-02T00:15:24;7.70;99.90
70947;DHT22;58605;48.700;8.760;2023-05-02T00:17:52;7.70;99.90
70947;DHT22;58605;48.700;8.760;2023-05-02T00:20:20;7.60;99.90
70947;DHT22;58605;48.700;8.760;2023-05-02T00:22:46;7.60;99.90
70947;DHT22;58605;48.700;8.760;2023-05-02T00:25:12;7.50;99.90
70947;DHT22;58605;48.700;8.760;2023-05-02T00:27:40;7.40;99.90
70947;DHT22;58605;48.700;8.760;2023-05-02T00:30:08;7.40;99.90
70947;DHT22;58605;48.700;8.760;2023-05-02T00:32:34;7.50;99.90
70947;DHT22;58605;48.700;8.760;2023-05-02T00:35:00;7.40;99.90
70947;DHT22;58605;48.700;8.760;2023-05-02T00:37:28;7.30;99.90
70947;DHT22;58605;48.700;8.760;2023-05-02T00:39:54;7.40;99.90
70947;DHT22;58605;48.700;8.760;2023-05-02T00:42:20;7.30;99.90
70947;DHT22;58605;48.700;8.760;2023-05-02T00:44:46;7.20;99.90
70947;DHT22;58605;48.700;8.760;2023-05-02T00:47:13;7.10;99.90
70947;DHT22;58605;48.700;8.760;2023-05-02T00:49:39;7.20;99.90
70947;DHT22;58605;48.700;8.760;2023-05-02T00:52:05;7.20;99.90
70947;DHT22;58605;48.700;8.760;2023-05-02T00:54:34;7.20;99.90
70947;DHT22;58605;48.700;8.760;2023-05-02T00:57:00;7.30;99.90
70947;DHT22;58605;48.700;8.760;2023-05-02T00:59:27;7.30;99.90
70947;DHT22;58605;48.700;8.760;2023-05-02T01:02:27;7.30;99.90
70947;DHT22;58605;48.700;8.760;2023-05-02T01:05:00;7.30;99.90
70947;DHT22;58605;48.700;8.760;2023-05-02T01:07:39;7.30;99.90
70947;DHT22;58605;48.700;8.760;2023-05-02T01:10:20;7.30;99.90
70947;DHT22;58605;48.700;8.760;2023-05-02T01:12:56;7.30;99.90
70947;DHT22;58605;48.700;8.760;2023-05-02T01:15:24;7.30;99.90
70947;DHT22;58605;48.700;8.760;2023-05-02T01:17:53;7.30;99.90
70947;DHT22;58605;48.700;8.760;2023-05-02T01:20:20;7.30;99.90
70947;DHT22;58605;48.700;8.760;2023-05-02T01:22:48;7.20;99.90
70947;DHT22;58605;48.700;8.760;2023-05-02T01:25:24;7.20;99.90
70947;DHT22;58605;48.700;8.760;2023-05-02T01:27:58;7.20;99.90
70947;DHT22;58605;48.700;8.760;2023-05-02T01:30:28;7.20;99.90
70947;DHT22;58605;48.700;8.760;2023-05-02T01:32:57;7.20;99.90
70947;DHT22;58605;48.700;8.760;2023-05-02T01:35:25;7.10;99.90
70947;DHT22;58605;48.700;8.760;2023-05-02T01:37:53;7.10;99.90
70947;DHT22;58605;48.700;8.760;2023-05-02T01:40:21;7.00;99.90
70947;DHT22;58605;48.700;8.760;2023-05-02T01:42:49;7.00;99.90
70947;DHT22;58605;48.700;8.760;2023-05-02T01:45:16;7.00;99.90
70947;DHT22;58605;48.700;8.760;2023-05-02T01:47:45;7.00;99.90
70947;DHT22;58605;48.700;8.760;2023-05-02T01:50:15;7.00;99.90
70947;DHT22;58605;48.700;8.760;2023-05-02T01:52:43;7.10;99.90
70947;DHT22;58605;48.700;8.760;2023-05-02T01:55:14;7.00;99.90
70947;DHT22;58605;48.700;8.760;2023-05-02T01:57:45;6.90;99.90
70947;DHT22;58605;48.700;8.760;2023-05-02T02:00:12;6.90;99.90
70947;DHT22;58605;48.700;8.760;2023-05-02T02:02:40;6.90;99.90
70947;DHT22;58605;48.700;8.760;2023-05-02T02:05:09;6.90;99.90
70947;DHT22;58605;48.700;8.760;2023-05-02T02:07:37;6.90;99.90
70947;DHT22;58605;48.700;8.760;2023-05-02T02:10:04;6.90;99.90
70947;DHT22;58605;48.700;8.760;2023-05-02T02:12:35;6.80;99.90
70947;DHT22;58605;48.700;8.760;2023-05-02T02:15:09;6.80;99.90
70947;DHT22;58605;48.700;8.760;2023-05-02T02:17:41;6.90;99.90
70947;DHT22;58605;48.700;8.760;2023-05-02T02:20:12;6.80;99.90
70947;DHT22;58605;48.700;8.760;2023-05-02T02:22:41;6.80;99.90
70947;DHT22;58605;48.700;8.760;2023-05-02T02:25:11;6.80;99.90
70947;DHT22;58605;48.700;8.760;2023-05-02T02:27:39;6.80;99.90
70947;DHT22;58605;48.700;8.760;2023-05-02T02:30:06;6.80;99.90
70947;DHT22;58605;48.700;8.760;2023-05-02T02:32:33;6.70;99.90
70947;DHT22;58605;48.700;8.760;2023-05-02T02:34:59;6.60;99.90
70947;DHT22;58605;48.700;8.760;2023-05-02T02:37:30;6.50;99.90
70947;DHT22;58605;48.700;8.760;2023-05-02T02:40:08;6.50;99.90
70947;DHT22;58605;48.700;8.760;2023-05-02T02:42:43;6.50;99.90
70947;DHT22;58605;48.700;8.760;2023-05-02T02:45:18;6.50;99.90
70947;DHT22;58605;48.700;8.760;2023-05-02T02:47:49;6.50;99.90
70947;DHT22;58605;48.700;8.760;2023-05-02T02:50:19;6.60;99.90
70947;DHT22;58605;48.700;8.760;2023-05-02T02:52:52;6.60;99.90
70947;DHT22;58605;48.700;8.760;2023-05-02T02:55:28;6.70;99.90
70947;DHT22;58605;48.700;8.760;2023-05-02T02:57:59;6.80;99.90
70947;DHT22;58605;48.700;8.760;2023-05-02T03:00:28;6.80;99.90
70947;DHT22;58605;48.700;8.760;2023-05-02T03:02:54;6.80;99.90
70947;DHT22;58605;48.700;8.760;2023-05-02T03:05:21;6.80;99.90
70947;DHT22;58605;48.700;8.760;2023-05-02T03:07:49;6.80;99.90
70947;DHT22;58605;48.700;8.760;2023-05-02T03:10:16;6.90;99.90
70947;DHT22;58605;48.700;8.760;2023-05-02T03:12:42;6.90;99.90
70947;DHT22;58605;48.700;8.760;2023-05-02T03:15:21;6.90;99.90
70947;DHT22;58605;48.700;8.760;2023-05-02T03:17:51;6.80;99.90
70947;DHT22;58605;48.700;8.760;2023-05-02T03:20:17;6.80;99.90
70947;DHT22;58605;48.700;8.760;2023-05-02T03:22:43;6.80;99.90
70947;DHT22;58605;48.700;8.760;2023-05-02T03:25:10;6.70;99.90
70947;DHT22;58605;48.700;8.760;2023-05-02T03:27:37;6.70;99.90
70947;DHT22;58605;48.700;8.760;2023-05-02T03:30:03;6.60;99.90
70947;DHT22;58605;48.700;8.760;2023-05-02T03:32:29;6.50;99.90
70947;DHT22;58605;48.700;8.760;2023-05-02T03:34:55;6.40;99.90
70947;DHT22;58605;48.700;8.760;2023-05-02T03:37:23;6.40;99.90
70947;DHT22;58605;48.700;8.760;2023-05-02T03:39:49;6.50;99.90
70947;DHT22;58605;48.700;8.760;2023-05-02T03:42:16;6.60;99.90
70947;DHT22;58605;48.700;8.760;2023-05-02T03:44:42;6.70;99.90
70947;DHT22;58605;48.700;8.760;2023-05-02T03:47:08;6.80;99.90
70947;DHT22;58605;48.700;8.760;2023-05-02T03:49:34;6.80;99.90
70947;DHT22;58605;48.700;8.760;2023-05-02T03:52:01;6.80;99.90
70947;DHT22;58605;48.700;8.760;2023-05-02T03:54:31;6.90;99.90
70947;DHT22;58605;48.700;8.760;2023-05-02T03:56:57;6.90;99.90
70947;DHT22;58605;48.700;8.760;2023-05-02T03:59:25;6.90;99.90
70947;DHT22;58605;48.700;8.760;2023-05-02T04:01:52;6.90;99.90
70947;DHT22;58605;48.700;8.760;2023-05-02T04:04:18;7.00;99.90
70947;DHT22;58605;48.700;8.760;2023-05-02T04:06:44;7.00;99.90
70947;DHT22;58605;48.700;8.760;2023-05-02T04:09:10;6.90;99.90
70947;DHT22;58605;48.700;8.760;2023-05-02T04:11:36;7.00;99.90
70947;DHT22;58605;48.700;8.760;2023-05-02T04:14:02;7.00;99.90
70947;DHT22;58605;48.700;8.760;2023-05-02T04:16:30;7.20;99.90
70947;DHT22;58605;48.700;8.760;2023-05-02T04:18:56;7.20;99.90
70947;DHT22;58605;48.700;8.760;2023-05-02T04:21:22;7.30;99.90
70947;DHT22;58605;48.700;8.760;2023-05-02T04:23:48;7.40;99.90
70947;DHT22;58605;48.700;8.760;2023-05-02T04:26:14;7.30;99.90
70947;DHT22;58605;48.700;8.760;2023-05-02T04:28:41;7.30;99.90
70947;DHT22;58605;48.700;8.760;2023-05-02T04:31:07;7.30;99.90
70947;DHT22;58605;48.700;8.760;2023-05-02T04:33:34;7.30;99.90
70947;DHT22;58605;48.700;8.760;2023-05-02T04:36:01;7.40;99.90
70947;DHT22;58605;48.700;8.760;2023-05-02T04:38:27;7.50;99.90
70947;DHT22;58605;48.700;8.760;2023-05-02T04:40:53;7.40;99.90
70947;DHT22;58605;48.700;8.760;2023-05-02T04:43:20;7.50;99.90
70947;DHT22;58605;48.700;8.760;2023-05-02T04:45:46;7.50;99.90
70947;DHT22;58605;48.700;8.760;2023-05-02T04:48:12;7.60;99.90
70947;DHT22;58605;48.700;8.760;2023-05-02T04:50:40;7.40;99.90
70947;DHT22;58605;48.700;8.760;2023-05-02T04:53:06;7.30;99.90
70947;DHT22;58605;48.700;8.760;2023-05-02T04:55:32;7.20;99.90
70947;DHT22;58605;48.700;8.760;2023-05-02T04:57:58;7.30;99.90
70947;DHT22;58605;48.700;8.760;2023-05-02T05:00:24;7.20;99.90
70947;DHT22;58605;48.700;8.760;2023-05-02T05:02:56;7.10;99.90
70947;DHT22;58605;48.700;8.760;2023-05-02T05:05:22;7.10;99.90
70947;DHT22;58605;48.700;8.760;2023-05-02T05:07:50;7.10;99.90
70947;DHT22;58605;48.700;8.760;2023-05-02T05:10:17;7.20;99.90
70947;DHT22;58605;48.700;8.760;2023-05-02T05:12:43;7.20;99.90
70947;DHT22;58605;48.700;8.760;2023-05-02T05:15:10;7.20;99.90
70947;DHT22;58605;48.700;8.760;2023-05-02T05:17:36;7.20;99.90
70947;DHT22;58605;48.700;8.760;2023-05-02T05:20:03;7.10;99.90
70947;DHT22;58605;48.700;8.760;2023-05-02T05:22:29;7.10;99.90
70947;DHT22;58605;48.700;8.760;2023-05-02T05:24:57;7.10;99.90
70947;DHT22;58605;48.700;8.760;2023-05-02T05:27:23;7.20;99.90
70947;DHT22;58605;48.700;8.760;2023-05-02T05:29:49;7.30;99.90
70947;DHT22;58605;48.700;8.760;2023-05-02T05:32:16;7.40;99.90
70947;DHT22;58605;48.700;8.760;2023-05-02T05:34:51;7.50;99.90
70947;DHT22;58605;48.700;8.760;2023-05-02T05:37:17;7.70;99.90
70947;DHT22;58605;48.700;8.760;2023-05-02T05:39:43;7.80;99.90
70947;DHT22;58605;48.700;8.760;2023-05-02T05:42:11;8.00;99.90
70947;DHT22;58605;48.700;8.760;2023-05-02T05:44:37;8.10;99.90
70947;DHT22;58605;48.700;8.760;2023-05-02T05:47:04;8.10;99.90
70947;DHT22;58605;48.700;8.760;2023-05-02T05:49:30;8.20;99.90
70947;DHT22;58605;48.700;8.760;2023-05-02T05:51:56;8.30;99.90
70947;DHT22;58605;48.700;8.760;2023-05-02T05:54:22;8.50;99.90
70947;DHT22;58605;48.700;8.760;2023-05-02T05:56:49;8.50;99.90
70947;DHT22;58605;48.700;8.760;2023-05-02T05:59:16;8.60;99.90
70947;DHT22;58605;48.700;8.760;2023-05-02T06:01:42;8.70;99.90
70947;DHT22;58605;48.700;8.760;2023-05-02T06:04:08;8.70;99.90
70947;DHT22;58605;48.700;8.760;2023-05-02T06:06:34;8.70;99.90
70947;DHT22;58605;48.700;8.760;2023-05-02T06:09:01;8.60;99.90
70947;DHT22;58605;48.700;8.760;2023-05-02T06:11:27;8.50;99.90
70947;DHT22;58605;48.700;8.760;2023-05-02T06:13:53;8.60;99.90
70947;DHT22;58605;48.700;8.760;2023-05-02T06:16:20;8.60;99.90
70947;DHT22;58605;48.700;8.760;2023-05-02T06:18:48;8.60;99.90
70947;DHT22;58605;48.700;8.760;2023-05-02T06:21:15;8.80;99.90
70947;DHT22;58605;48.700;8.760;2023-05-02T06:23:41;8.80;99.90
70947;DHT22;58605;48.700;8.760;2023-05-02T06:26:07;9.00;99.90
70947;DHT22;58605;48.700;8.760;2023-05-02T06:28:34;9.10;99.90
70947;DHT22;58605;48.700;8.760;2023-05-02T06:31:02;9.20;99.90
70947;DHT22;58605;48.700;8.760;2023-05-02T06:33:30;9.50;99.90
70947;DHT22;58605;48.700;8.760;2023-05-02T06:35:56;9.60;99.90
70947;DHT22;58605;48.700;8.760;2023-05-02T06:38:23;9.80;99.90
70947;DHT22;58605;48.700;8.760;2023-05-02T06:40:49;9.90;99.90
70947;DHT22;58605;48.700;8.760;2023-05-02T06:43:15;9.90;99.90
70947;DHT22;58605;48.700;8.760;2023-05-02T06:45:41;9.80;99.90
70947;DHT22;58605;48.700;8.760;2023-05-02T06:48:08;9.90;99.90
70947;DHT22;58605;48.700;8.760;2023-05-02T06:50:35;9.80;99.90
70947;DHT22;58605;48.700;8.760;2023-05-02T06:53:02;9.90;99.90
70947;DHT22;58605;48.700;8.760;2023-05-02T06:55:28;10.00;99.90
70947;DHT22;58605;48.700;8.760;2023-05-02T06:57:54;10.10;99.90
70947;DHT22;58605;48.700;8.760;2023-05-02T07:00:21;10.20;99.90
70947;DHT22;58605;48.700;8.760;2023-05-02T07:02:47;10.30;99.90
70947;DHT22;58605;48.700;8.760;2023-05-02T07:05:14;10.30;99.90
70947;DHT22;58605;48.700;8.760;2023-05-02T07:07:42;10.30;99.90
70947;DHT22;58605;48.700;8.760;2023-05-02T07:10:09;10.40;99.90
70947;DHT22;58605;48.700;8.760;2023-05-02T07:12:36;10.40;99.90
70947;DHT22;58605;48.700;8.760;2023-05-02T07:15:02;10.50;99.90
70947;DHT22;58605;48.700;8.760;2023-05-02T07:17:28;10.60;99.90
70947;DHT22;58605;48.700;8.760;2023-05-02T07:19:54;10.70;99.90
70947;DHT22;58605;48.700;8.760;2023-05-02T07:22:21;10.70;99.90
70947;DHT22;58605;48.700;8.760;2023-05-02T07:24:55;10.90;99.90
70947;DHT22;58605;48.700;8.760;2023-05-02T07:27:21;10.80;99.90
70947;DHT22;58605;48.700;8.760;2023-05-02T07:29:47;10.70;99.90
70947;DHT22;58605;48.700;8.760;2023-05-02T07:32:13;10.70;99.90
70947;DHT22;58605;48.700;8.760;2023-05-02T07:34:39;10.60;99.90
70947;DHT22;58605;48.700;8.760;2023-05-02T07:37:05;10.50;99.90
70947;DHT22;58605;48.700;8.760;2023-05-02T07:39:32;10.60;99.90
70947;DHT22;58605;48.700;8.760;2023-05-02T07:42:00;10.50;99.90
70947;DHT22;58605;48.700;8.760;2023-05-02T07:44:26;10.40;99.90
70947;DHT22;58605;48.700;8.760;2023-05-02T07:46:52;10.40;99.90
70947;DHT22;58605;48.700;8.760;2023-05-02T07:49:18;10.40;99.90
70947;DHT22;58605;48.700;8.760;2023-05-02T07:51:44;10.40;99.90
70947;DHT22;58605;48.700;8.760;2023-05-02T07:54:16;10.40;99.90
70947;DHT22;58605;48.700;8.760;2023-05-02T07:56:43;10.30;99.90
70947;DHT22;58605;48.700;8.760;2023-05-02T07:59:10;10.30;99.90
70947;DHT22;58605;48.700;8.760;2023-05-02T08:01:36;10.30;99.90
70947;DHT22;58605;48.700;8.760;2023-05-02T08:04:03;10.40;99.90
70947;DHT22;58605;48.700;8.760;2023-05-02T08:06:29;10.40;99.90
70947;DHT22;58605;48.700;8.760;2023-05-02T08:08:55;10.40;99.90
70947;DHT22;58605;48.700;8.760;2023-05-02T08:11:22;10.40;99.90
70947;DHT22;58605;48.700;8.760;2023-05-02T08:13:50;10.40;99.90
70947;DHT22;58605;48.700;8.760;2023-05-02T08:16:17;10.50;99.90
70947;DHT22;58605;48.700;8.760;2023-05-02T08:18:43;10.60;99.90
70947;DHT22;58605;48.700;8.760;2023-05-02T08:21:09;10.70;99.90
70947;DHT22;58605;48.700;8.760;2023-05-02T08:23:36;10.80;99.90
70947;DHT22;58605;48.700;8.760;2023-05-02T08:26:04;10.90;99.90
70947;DHT22;58605;48.700;8.760;2023-05-02T08:28:30;11.10;99.90
70947;DHT22;58605;48.700;8.760;2023-05-02T08:30:56;11.30;99.90
70947;DHT22;58605;48.700;8.760;2023-05-02T08:33:24;11.30;99.90
70947;DHT22;58605;48.700;8.760;2023-05-02T08:35:51;11.30;99.90
70947;DHT22;58605;48.700;8.760;2023-05-02T08:38:17;11.30;99.90
70947;DHT22;58605;48.700;8.760;2023-05-02T08:40:44;11.50;99.90
70947;DHT22;58605;48.700;8.760;2023-05-02T08:43:11;11.70;99.90
70947;DHT22;58605;48.700;8.760;2023-05-02T08:45:39;11.70;99.90
70947;DHT22;58605;48.700;8.760;2023-05-02T08:48:08;11.80;99.90
70947;DHT22;58605;48.700;8.760;2023-05-02T08:50:40;12.00;99.90
70947;DHT22;58605;48.700;8.760;2023-05-02T08:53:07;11.80;99.90
70947;DHT22;58605;48.700;8.760;2023-05-02T08:55:36;11.70;99.90
70947;DHT22;58605;48.700;8.760;2023-05-02T08:58:04;11.80;99.90
70947;DHT22;58605;48.700;8.760;2023-05-02T09:00:31;12.00;99.90
70947;DHT22;58605;48.700;8.760;2023-05-02T09:03:06;12.10;99.90
70947;DHT22;58605;48.700;8.760;2023-05-02T09:05:38;12.20;99.90
70947;DHT22;58605;48.700;8.760;2023-05-02T09:08:05;12.30;99.90
70947;DHT22;58605;48.700;8.760;2023-05-02T09:10:33;12.60;99.90
70947;DHT22;58605;48.700;8.760;2023-05-02T09:13:28;12.50;99.90
70947;DHT22;58605;48.700;8.760;2023-05-02T09:15:59;12.40;99.90
70947;DHT22;58605;48.700;8.760;2023-05-02T09:18:30;12.40;99.90
70947;DHT22;58605;48.700;8.760;2023-05-02T09:20:59;12.50;99.90
70947;DHT22;58605;48.700;8.760;2023-05-02T09:23:33;12.60;99.90
70947;DHT22;58605;48.700;8.760;2023-05-02T09:26:00;12.70;99.90
70947;DHT22;58605;48.700;8.760;2023-05-02T09:28:39;12.80;99.90
70947;DHT22;58605;48.700;8.760;2023-05-02T09:31:07;12.90;99.90
70947;DHT22;58605;48.700;8.760;2023-05-02T09:33:34;12.80;99.90
70947;DHT22;58605;48.700;8.760;2023-05-02T09:36:01;12.80;99.90
70947;DHT22;58605;48.700;8.760;2023-05-02T09:38:27;12.80;99.60
70947;DHT22;58605;48.700;8.760;2023-05-02T09:40:54;12.90;98.50
70947;DHT22;58605;48.700;8.760;2023-05-02T09:43:21;12.90;99.90
70947;DHT22;58605;48.700;8.760;2023-05-02T09:45:55;12.60;98.90
70947;DHT22;58605;48.700;8.760;2023-05-02T09:48:21;12.60;99.90
70947;DHT22;58605;48.700;8.760;2023-05-02T09:50:47;12.70;99.90
70947;DHT22;58605;48.700;8.760;2023-05-02T09:53:15;12.90;99.90
70947;DHT22;58605;48.700;8.760;2023-05-02T09:55:41;13.00;99.90
70947;DHT22;58605;48.700;8.760;2023-05-02T09:58:19;12.80;99.50
70947;DHT22;58605;48.700;8.760;2023-05-02T10:00:50;12.90;99.70
70947;DHT22;58605;48.700;8.760;2023-05-02T10:03:19;12.90;98.00
70947;DHT22;58605;48.700;8.760;2023-05-02T10:05:48;13.00;99.10
70947;DHT22;58605;48.700;8.760;2023-05-02T10:08:17;13.10;99.10
70947;DHT22;58605;48.700;8.760;2023-05-02T10:10:45;13.20;98.30
70947;DHT22;58605;48.700;8.760;2023-05-02T10:13:12;13.20;96.90
70947;DHT22;58605;48.700;8.760;2023-05-02T10:15:43;13.10;96.60
70947;DHT22;58605;48.700;8.760;2023-05-02T10:18:12;13.10;96.70
70947;DHT22;58605;48.700;8.760;2023-05-02T10:20:46;12.80;96.80
70947;DHT22;58605;48.700;8.760;2023-05-02T10:23:16;12.50;97.10
70947;DHT22;58605;48.700;8.760;2023-05-02T10:25:43;12.50;98.20
70947;DHT22;58605;48.700;8.760;2023-05-02T10:28:09;12.70;96.10
70947;DHT22;58605;48.700;8.760;2023-05-02T10:30:36;13.10;95.10
70947;DHT22;58605;48.700;8.760;2023-05-02T10:33:03;13.10;94.60
70947;DHT22;58605;48.700;8.760;2023-05-02T10:35:31;12.90;95.20
70947;DHT22;58605;48.700;8.760;2023-05-02T10:37:58;12.60;96.60
70947;DHT22;58605;48.700;8.760;2023-05-02T10:40:26;12.60;96.30
70947;DHT22;58605;48.700;8.760;2023-05-02T10:42:53;12.40;96.80
70947;DHT22;58605;48.700;8.760;2023-05-02T10:45:32;12.30;97.50
70947;DHT22;58605;48.700;8.760;2023-05-02T10:48:15;12.20;97.80
70947;DHT22;58605;48.700;8.760;2023-05-02T10:50:46;12.30;98.70
70947;DHT22;58605;48.700;8.760;2023-05-02T10:53:28;12.30;98.40
70947;DHT22;58605;48.700;8.760;2023-05-02T10:56:13;12.30;98.50
70947;DHT22;58605;48.700;8.760;2023-05-02T10:58:49;12.20;98.90
70947;DHT22;58605;48.700;8.760;2023-05-02T11:01:34;12.40;98.90
70947;DHT22;58605;48.700;8.760;2023-05-02T11:04:03;12.80;99.50
70947;DHT22;58605;48.700;8.760;2023-05-02T11:06:30;13.00;96.10
70947;DHT22;58605;48.700;8.760;2023-05-02T11:09:32;13.10;94.50
70947;DHT22;58605;48.700;8.760;2023-05-02T11:12:00;13.40;90.70
70947;DHT22;58605;48.700;8.760;2023-05-02T11:14:46;13.30;91.70
70947;DHT22;58605;48.700;8.760;2023-05-02T11:17:13;13.50;91.40
70947;DHT22;58605;48.700;8.760;2023-05-02T11:22:58;13.90;87.90
70947;DHT22;58605;48.700;8.760;2023-05-02T11:25:29;14.00;88.40
70947;DHT22;58605;48.700;8.760;2023-05-02T11:27:56;13.90;85.60
70947;DHT22;58605;48.700;8.760;2023-05-02T11:30:36;14.10;86.10
70947;DHT22;58605;48.700;8.760;2023-05-02T11:33:15;13.90;87.90
70947;DHT22;58605;48.700;8.760;2023-05-02T11:35:43;13.20;89.50
70947;DHT22;58605;48.700;8.760;2023-05-02T11:38:11;12.90;90.70
70947;DHT22;58605;48.700;8.760;2023-05-02T11:40:38;13.00;90.90
70947;DHT22;58605;48.700;8.760;2023-05-02T11:43:13;12.80;91.50
70947;DHT22;58605;48.700;8.760;2023-05-02T11:45:39;13.10;92.70
70947;DHT22;58605;48.700;8.760;2023-05-02T11:48:07;13.60;91.70
70947;DHT22;58605;48.700;8.760;2023-05-02T11:50:40;14.20;90.60
70947;DHT22;58605;48.700;8.760;2023-05-02T11:53:09;14.20;87.30
70947;DHT22;58605;48.700;8.760;2023-05-02T11:55:36;13.90;87.10
70947;DHT22;58605;48.700;8.760;2023-05-02T11:58:02;13.80;87.80
70947;DHT22;58605;48.700;8.760;2023-05-02T12:00:30;14.00;86.20
70947;DHT22;58605;48.700;8.760;2023-05-02T12:02:56;14.20;85.30
70947;DHT22;58605;48.700;8.760;2023-05-02T12:05:27;14.50;81.60
70947;DHT22;58605;48.700;8.760;2023-05-02T12:07:57;14.10;84.70
70947;DHT22;58605;48.700;8.760;2023-05-02T12:10:24;13.70;86.50
70947;DHT22;58605;48.700;8.760;2023-05-02T12:13:03;14.40;83.90
70947;DHT22;58605;48.700;8.760;2023-05-02T12:15:31;14.20;82.90
70947;DHT22;58605;48.700;8.760;2023-05-02T12:17:58;14.10;84.60
70947;DHT22;58605;48.700;8.760;2023-05-02T12:20:26;14.10;83.20
70947;DHT22;58605;48.700;8.760;2023-05-02T12:22:52;14.30;80.80
70947;DHT22;58605;48.700;8.760;2023-05-02T12:25:18;14.00;80.20
70947;DHT22;58605;48.700;8.760;2023-05-02T12:27:58;14.20;82.70
70947;DHT22;58605;48.700;8.760;2023-05-02T12:30:27;14.10;83.00
70947;DHT22;58605;48.700;8.760;2023-05-02T12:32:59;14.10;79.20
70947;DHT22;58605;48.700;8.760;2023-05-02T12:35:29;14.10;79.80
70947;DHT22;58605;48.700;8.760;2023-05-02T12:38:11;14.20;80.60
70947;DHT22;58605;48.700;8.760;2023-05-02T12:40:37;14.10;79.90
70947;DHT22;58605;48.700;8.760;2023-05-02T12:43:05;14.20;82.60
70947;DHT22;58605;48.700;8.760;2023-05-02T12:45:35;14.20;79.60
70947;DHT22;58605;48.700;8.760;2023-05-02T12:48:16;14.20;81.20
70947;DHT22;58605;48.700;8.760;2023-05-02T12:50:43;14.30;83.50
70947;DHT22;58605;48.700;8.760;2023-05-02T12:53:09;14.50;85.20
70947;DHT22;58605;48.700;8.760;2023-05-02T12:55:35;14.60;82.90
70947;DHT22;58605;48.700;8.760;2023-05-02T12:58:02;14.70;81.80
70947;DHT22;58605;48.700;8.760;2023-05-02T13:00:29;14.80;81.20
70947;DHT22;58605;48.700;8.760;2023-05-02T13:02:56;14.60;81.70
70947;DHT22;58605;48.700;8.760;2023-05-02T13:05:23;14.70;79.60
70947;DHT22;58605;48.700;8.760;2023-05-02T13:07:49;14.70;81.40
70947;DHT22;58605;48.700;8.760;2023-05-02T13:10:16;14.90;85.40
70947;DHT22;58605;48.700;8.760;2023-05-02T13:12:44;14.80;81.80
70947;DHT22;58605;48.700;8.760;2023-05-02T13:15:12;14.70;80.70
70947;DHT22;58605;48.700;8.760;2023-05-02T13:17:38;14.80;82.40
70947;DHT22;58605;48.700;8.760;2023-05-02T13:20:05;14.70;76.80
70947;DHT22;58605;48.700;8.760;2023-05-02T13:22:33;14.80;79.30
70947;DHT22;58605;48.700;8.760;2023-05-02T13:24:59;14.90;76.30
70947;DHT22;58605;48.700;8.760;2023-05-02T13:27:25;14.80;75.10
70947;DHT22;58605;48.700;8.760;2023-05-02T13:29:52;14.90;76.20
70947;DHT22;58605;48.700;8.760;2023-05-02T13:32:18;14.90;76.40
70947;DHT22;58605;48.700;8.760;2023-05-02T13:34:45;14.90;78.80
70947;DHT22;58605;48.700;8.760;2023-05-02T13:37:11;15.00;78.50
70947;DHT22;58605;48.700;8.760;2023-05-02T13:39:38;15.30;82.60
70947;DHT22;58605;48.700;8.760;2023-05-02T13:42:04;15.40;79.20
70947;DHT22;58605;48.700;8.760;2023-05-02T13:44:31;15.50;82.20
70947;DHT22;58605;48.700;8.760;2023-05-02T13:46:57;15.40;78.00
70947;DHT22;58605;48.700;8.760;2023-05-02T13:49:23;15.30;78.00
70947;DHT22;58605;48.700;8.760;2023-05-02T13:51:49;15.10;78.90
70947;DHT22;58605;48.700;8.760;2023-05-02T13:54:15;15.30;76.80
70947;DHT22;58605;48.700;8.760;2023-05-02T13:56:43;15.30;75.90
70947;DHT22;58605;48.700;8.760;2023-05-02T13:59:09;15.30;78.90
70947;DHT22;58605;48.700;8.760;2023-05-02T14:01:35;15.10;79.30
70947;DHT22;58605;48.700;8.760;2023-05-02T14:04:04;15.20;77.30
70947;DHT22;58605;48.700;8.760;2023-05-02T14:06:33;15.00;74.60
70947;DHT22;58605;48.700;8.760;2023-05-02T14:08:59;14.90;75.60
70947;DHT22;58605;48.700;8.760;2023-05-02T14:11:25;15.00;76.00
70947;DHT22;58605;48.700;8.760;2023-05-02T14:13:53;15.10;77.20
70947;DHT22;58605;48.700;8.760;2023-05-02T14:16:22;15.20;76.30
70947;DHT22;58605;48.700;8.760;2023-05-02T14:18:48;15.20;75.40
70947;DHT22;58605;48.700;8.760;2023-05-02T14:21:14;15.30;78.10
70947;DHT22;58605;48.700;8.760;2023-05-02T14:23:40;15.50;76.90
70947;DHT22;58605;48.700;8.760;2023-05-02T14:26:07;15.60;74.50
70947;DHT22;58605;48.700;8.760;2023-05-02T14:28:33;15.50;72.40
70947;DHT22;58605;48.700;8.760;2023-05-02T14:31:01;15.40;74.10
70947;DHT22;58605;48.700;8.760;2023-05-02T14:33:27;15.40;75.60
70947;DHT22;58605;48.700;8.760;2023-05-02T14:35:53;15.40;72.20
70947;DHT22;58605;48.700;8.760;2023-05-02T14:38:19;15.20;75.10
70947;DHT22;58605;48.700;8.760;2023-05-02T14:40:45;15.00;75.30
70947;DHT22;58605;48.700;8.760;2023-05-02T14:43:11;15.20;76.00
70947;DHT22;58605;48.700;8.760;2023-05-02T14:45:37;15.20;75.10
70947;DHT22;58605;48.700;8.760;2023-05-02T14:48:05;15.30;73.60
70947;DHT22;58605;48.700;8.760;2023-05-02T14:50:32;15.30;73.90
70947;DHT22;58605;48.700;8.760;2023-05-02T14:52:58;15.00;70.60
70947;DHT22;58605;48.700;8.760;2023-05-02T14:55:24;15.00;71.60
70947;DHT22;58605;48.700;8.760;2023-05-02T14:57:50;15.00;72.60
70947;DHT22;58605;48.700;8.760;2023-05-02T15:00:17;15.10;75.30
70947;DHT22;58605;48.700;8.760;2023-05-02T15:02:43;15.30;73.40
70947;DHT22;58605;48.700;8.760;2023-05-02T15:05:10;15.40;73.50
70947;DHT22;58605;48.700;8.760;2023-05-02T15:07:37;15.40;73.40
70947;DHT22;58605;48.700;8.760;2023-05-02T15:10:03;15.10;73.60
70947;DHT22;58605;48.700;8.760;2023-05-02T15:12:29;15.30;72.40
70947;DHT22;58605;48.700;8.760;2023-05-02T15:14:55;15.40;71.70
70947;DHT22;58605;48.700;8.760;2023-05-02T15:17:21;15.50;69.40
70947;DHT22;58605;48.700;8.760;2023-05-02T15:19:47;15.50;72.40
70947;DHT22;58605;48.700;8.760;2023-05-02T15:22:15;15.50;70.80
70947;DHT22;58605;48.700;8.760;2023-05-02T15:24:43;15.30;72.00
70947;DHT22;58605;48.700;8.760;2023-05-02T15:27:09;15.20;70.90
70947;DHT22;58605;48.700;8.760;2023-05-02T15:29:35;15.00;70.60
70947;DHT22;58605;48.700;8.760;2023-05-02T15:32:01;15.00;69.20
70947;DHT22;58605;48.700;8.760;2023-05-02T15:34:27;15.00;69.70
70947;DHT22;58605;48.700;8.760;2023-05-02T15:36:53;14.90;69.40
70947;DHT22;58605;48.700;8.760;2023-05-02T15:39:20;15.10;67.60
70947;DHT22;58605;48.700;8.760;2023-05-02T15:41:53;15.40;69.70
70947;DHT22;58605;48.700;8.760;2023-05-02T15:44:27;15.40;69.40
70947;DHT22;58605;48.700;8.760;2023-05-02T15:46:53;15.60;66.40